sensor_id;sensor_type;location;lat;lon;timestamp;temperature;humidity
48454;DHT22;34261;55.678;12.464;2023-03-02T00:00:32;2.60;99.90
48454;DHT22;34261;55.678;12.464;2023-03-02T00:02:58;2.60;99.90
48454;DHT22;34261;55.678;12.464;2023-03-02T00:05:23;2.60;99.90
48454;DHT22;34261;55.678;12.464;2023-03-02T00:07:50;2.50;99.90
48454;DHT22;34261;55.678;12.464;2023-03-02T00:10:15;2.50;99.90
48454;DHT22;34261;55.678;12.464;2023-03-02T00:12:41;2.50;99.90
48454;DHT22;34261;55.678;12.464;2023-03-02T00:15:06;2.40;99.90
48454;DHT22;34261;55.678;12.464;2023-03-02T00:17:32;2.40;99.90
48454;DHT22;34261;55.678;12.464;2023-03-02T00:19:57;2.40;99.90
48454;DHT22;34261;55.678;12.464;2023-03-02T00:22:39;2.40;99.90
48454;DHT22;34261;55.678;12.464;2023-03-02T00:25:05;2.40;99.90
48454;DHT22;34261;55.678;12.464;2023-03-02T00:27:30;2.40;99.90
48454;DHT22;34261;55.678;12.464;2023-03-02T00:29:56;2.40;99.90
48454;DHT22;34261;55.678;12.464;2023-03-02T00:32:22;2.40;99.90
48454;DHT22;34261;55.678;12.464;2023-03-02T00:34:47;2.40;99.90
48454;DHT22;34261;55.678;12.464;2023-03-02T00:37:13;2.30;99.90
48454;DHT22;34261;55.678;12.464;2023-03-02T00:39:38;2.30;99.90
48454;DHT22;34261;55.678;12.464;2023-03-02T00:42:04;2.30;99.90
48454;DHT22;34261;55.678;12.464;2023-03-02T00:44:29;2.30;99.90
48454;DHT22;34261;55.678;12.464;2023-03-02T00:46:55;2.30;99.90
48454;DHT22;34261;55.678;12.464;2023-03-02T00:49:20;2.20;99.90
48454;DHT22;34261;55.678;12.464;2023-03-02T00:51:46;2.10;99.90
48454;DHT22;34261;55.678;12.464;2023-03-02T00:54:11;2.10;99.90
48454;DHT22;34261;55.678;12.464;2023-03-02T00:56:37;2.10;99.90
48454;DHT22;34261;55.678;12.464;2023-03-02T00:59:03;2.10;99.90
48454;DHT22;34261;55.678;12.464;2023-03-02T01:01:28;2.10;99.90
48454;DHT22;34261;55.678;12.464;2023-03-02T01:03:54;2.10;99.90
48454;DHT22;34261;55.678;12.464;2023-03-02T01:06:20;2.10;99.90
48454;DHT22;34261;55.678;12.464;2023-03-02T01:08:45;2.10;99.90
48454;DHT22;34261;55.678;12.464;2023-03-02T01:11:18;2.00;99.90
48454;DHT22;34261;55.678;12.464;2023-03-02T01:13:44;2.00;99.90
48454;DHT22;34261;55.678;12.464;2023-03-02T01:16:10;2.00;99.90
48454;DHT22;34261;55.678;12.464;2023-03-02T01:18:36;2.00;99.90
48454;DHT22;34261;55.678;12.464;2023-03-02T01:21:04;2.00;99.90
48454;DHT22;34261;55.678;12.464;2023-03-02T01:23:30;2.10;99.90
48454;DHT22;34261;55.678;12.464;2023-03-02T01:25:55;2.10;99.90
48454;DHT22;34261;55.678;12.464;2023-03-02T01:28:21;2.10;99.90
48454;DHT22;34261;55.678;12.464;2023-03-02T01:30:46;2.10;99.90
48454;DHT22;34261;55.678;12.464;2023-03-02T01:33:11;2.10;99.90
48454;DHT22;34261;55.678;12.464;2023-03-02T01:35:37;2.00;99.90
48454;DHT22;34261;55.678;12.464;2023-03-02T01:38:02;2.00;99.90
48454;DHT22;34261;55.678;12.464;2023-03-02T01:40:28;2.00;99.90
48454;DHT22;34261;55.678;12.464;2023-03-02T01:42:55;2.00;99.90
48454;DHT22;34261;55.678;12.464;2023-03-02T01:48:07;1.90;99.90
48454;DHT22;34261;55.678;12.464;2023-03-02T01:50:33;1.80;99.90
48454;DHT22;34261;55.678;12.464;2023-03-02T01:52:58;1.80;99.90
48454;DHT22;34261;55.678;12.464;2023-03-02T01:55:25;1.80;99.90
48454;DHT22;34261;55.678;12.464;2023-03-02T01:57:53;1.80;99.90
48454;DHT22;34261;55.678;12.464;2023-03-02T02:00:21;1.80;99.90
48454;DHT22;34261;55.678;12.464;2023-03-02T02:02:48;1.80;99.90
48454;DHT22;34261;55.678;12.464;2023-03-02T02:05:15;1.80;99.90
48454;DHT22;34261;55.678;12.464;2023-03-02T02:07:43;1.80;99.90
48454;DHT22;34261;55.678;12.464;2023-03-02T02:10:09;1.80;99.90
48454;DHT22;34261;55.678;12.464;2023-03-02T02:12:34;1.80;99.90
48454;DHT22;34261;55.678;12.464;2023-03-02T02:15:00;1.80;99.90
48454;DHT22;34261;55.678;12.464;2023-03-02T02:17:29;1.90;99.90
48454;DHT22;34261;55.678;12.464;2023-03-02T02:22:35;1.80;99.90
48454;DHT22;34261;55.678;12.464;2023-03-02T02:25:02;1.80;99.90
48454;DHT22;34261;55.678;12.464;2023-03-02T02:27:30;1.80;99.90
48454;DHT22;34261;55.678;12.464;2023-03-02T02:29:58;1.80;99.90
48454;DHT22;34261;55.678;12.464;2023-03-02T02:32:25;1.80;99.90
48454;DHT22;34261;55.678;12.464;2023-03-02T02:35:06;1.80;99.90
48454;DHT22;34261;55.678;12.464;2023-03-02T02:37:41;1.80;99.90
48454;DHT22;34261;55.678;12.464;2023-03-02T02:40:12;1.70;99.90
48454;DHT22;34261;55.678;12.464;2023-03-02T02:42:40;1.70;99.90
48454;DHT22;34261;55.678;12.464;2023-03-02T02:45:09;1.70;99.90
48454;DHT22;34261;55.678;12.464;2023-03-02T02:47:41;1.70;99.90
48454;DHT22;34261;55.678;12.464;2023-03-02T02:50:09;1.70;99.90
48454;DHT22;34261;55.678;12.464;2023-03-02T02:52:41;1.60;99.90
48454;DHT22;34261;55.678;12.464;2023-03-02T02:55:08;1.60;99.90
48454;DHT22;34261;55.678;12.464;2023-03-02T02:57:37;1.60;99.90
48454;DHT22;34261;55.678;12.464;2023-03-02T03:00:03;1.60;99.90
48454;DHT22;34261;55.678;12.464;2023-03-02T03:02:32;1.60;99.90
48454;DHT22;34261;55.678;12.464;2023-03-02T03:04:58;1.60;99.90
48454;DHT22;34261;55.678;12.464;2023-03-02T03:07:28;1.50;99.90
48454;DHT22;34261;55.678;12.464;2023-03-02T03:12:22;1.60;99.90
48454;DHT22;34261;55.678;12.464;2023-03-02T03:14:49;1.50;99.90
48454;DHT22;34261;55.678;12.464;2023-03-02T03:17:15;1.50;99.90
48454;DHT22;34261;55.678;12.464;2023-03-02T03:19:41;1.50;99.90
48454;DHT22;34261;55.678;12.464;2023-03-02T03:22:08;1.50;99.90
48454;DHT22;34261;55.678;12.464;2023-03-02T03:24:36;1.50;99.90
48454;DHT22;34261;55.678;12.464;2023-03-02T03:27:01;1.50;99.90
48454;DHT22;34261;55.678;12.464;2023-03-02T03:29:29;1.50;99.90
48454;DHT22;34261;55.678;12.464;2023-03-02T03:31:55;1.50;99.90
48454;DHT22;34261;55.678;12.464;2023-03-02T03:34:21;1.50;99.90
48454;DHT22;34261;55.678;12.464;2023-03-02T03:36:46;1.50;99.90
48454;DHT22;34261;55.678;12.464;2023-03-02T03:39:12;1.50;99.90
48454;DHT22;34261;55.678;12.464;2023-03-02T03:41:38;1.50;99.90
48454;DHT22;34261;55.678;12.464;2023-03-02T03:44:04;1.40;99.90
48454;DHT22;34261;55.678;12.464;2023-03-02T03:46:29;1.40;99.90
48454;DHT22;34261;55.678;12.464;2023-03-02T03:48:55;1.40;99.90
48454;DHT22;34261;55.678;12.464;2023-03-02T03:51:21;1.40;99.90
48454;DHT22;34261;55.678;12.464;2023-03-02T03:53:47;1.40;99.90
48454;DHT22;34261;55.678;12.464;2023-03-02T03:56:34;1.30;99.90
48454;DHT22;34261;55.678;12.464;2023-03-02T03:59:00;1.20;99.90
48454;DHT22;34261;55.678;12.464;2023-03-02T04:04:00;1.20;99.90
48454;DHT22;34261;55.678;12.464;2023-03-02T04:06:26;1.10;99.90
48454;DHT22;34261;55.678;12.464;2023-03-02T04:08:51;1.10;99.90
48454;DHT22;34261;55.678;12.464;2023-03-02T04:11:17;1.10;99.90
48454;DHT22;34261;55.678;12.464;2023-03-02T04:13:42;1.10;99.90
48454;DHT22;34261;55.678;12.464;2023-03-02T04:16:08;1.10;99.90
48454;DHT22;34261;55.678;12.464;2023-03-02T04:18:33;1.20;99.90
48454;DHT22;34261;55.678;12.464;2023-03-02T04:20:59;1.20;99.90
48454;DHT22;34261;55.678;12.464;2023-03-02T04:23:24;1.20;99.90
48454;DHT22;34261;55.678;12.464;2023-03-02T04:25:49;1.20;99.90
48454;DHT22;34261;55.678;12.464;2023-03-02T04:28:17;1.20;99.90
48454;DHT22;34261;55.678;12.464;2023-03-02T04:30:42;1.30;99.90
48454;DHT22;34261;55.678;12.464;2023-03-02T04:33:08;1.20;99.90
48454;DHT22;34261;55.678;12.464;2023-03-02T04:35:34;1.20;99.90
48454;DHT22;34261;55.678;12.464;2023-03-02T04:37:59;1.20;99.90
48454;DHT22;34261;55.678;12.464;2023-03-02T04:40:25;1.20;99.90
48454;DHT22;34261;55.678;12.464;2023-03-02T04:42:50;1.20;99.90
48454;DHT22;34261;55.678;12.464;2023-03-02T04:45:16;1.20;99.90
48454;DHT22;34261;55.678;12.464;2023-03-02T04:47:42;1.20;99.90
48454;DHT22;34261;55.678;12.464;2023-03-02T04:50:08;1.20;99.90
48454;DHT22;34261;55.678;12.464;2023-03-02T04:52:34;1.10;99.90
48454;DHT22;34261;55.678;12.464;2023-03-02T04:55:00;1.00;99.90
48454;DHT22;34261;55.678;12.464;2023-03-02T04:57:25;1.00;99.90
48454;DHT22;34261;55.678;12.464;2023-03-02T04:59:51;1.00;99.90
48454;DHT22;34261;55.678;12.464;2023-03-02T05:02:16;1.00;99.90
48454;DHT22;34261;55.678;12.464;2023-03-02T05:04:42;1.00;99.90
48454;DHT22;34261;55.678;12.464;2023-03-02T05:07:08;1.00;99.90
48454;DHT22;34261;55.678;12.464;2023-03-02T05:09:34;0.90;99.90
48454;DHT22;34261;55.678;12.464;2023-03-02T05:11:59;0.90;99.90
48454;DHT22;34261;55.678;12.464;2023-03-02T05:14:25;0.90;99.90
48454;DHT22;34261;55.678;12.464;2023-03-02T05:16:51;0.90;99.90
48454;DHT22;34261;55.678;12.464;2023-03-02T05:19:17;1.00;99.90
48454;DHT22;34261;55.678;12.464;2023-03-02T05:21:43;0.90;99.90
48454;DHT22;34261;55.678;12.464;2023-03-02T05:24:09;0.90;99.90
48454;DHT22;34261;55.678;12.464;2023-03-02T05:26:35;0.90;99.90
48454;DHT22;34261;55.678;12.464;2023-03-02T05:29:01;0.80;99.90
48454;DHT22;34261;55.678;12.464;2023-03-02T05:31:28;0.80;99.90
48454;DHT22;34261;55.678;12.464;2023-03-02T05:33:54;0.80;99.90
48454;DHT22;34261;55.678;12.464;2023-03-02T05:36:22;0.70;99.90
48454;DHT22;34261;55.678;12.464;2023-03-02T05:38:48;0.70;99.90
48454;DHT22;34261;55.678;12.464;2023-03-02T05:41:16;0.70;99.90
48454;DHT22;34261;55.678;12.464;2023-03-02T05:43:42;0.70;99.90
48454;DHT22;34261;55.678;12.464;2023-03-02T05:46:08;0.80;99.90
48454;DHT22;34261;55.678;12.464;2023-03-02T05:48:36;0.90;99.90
48454;DHT22;34261;55.678;12.464;2023-03-02T05:51:02;1.00;99.90
48454;DHT22;34261;55.678;12.464;2023-03-02T05:53:27;1.00;99.90
48454;DHT22;34261;55.678;12.464;2023-03-02T05:55:53;1.00;99.90
48454;DHT22;34261;55.678;12.464;2023-03-02T05:58:19;1.00;99.90
48454;DHT22;34261;55.678;12.464;2023-03-02T06:00:45;1.00;99.90
48454;DHT22;34261;55.678;12.464;2023-03-02T06:03:11;1.10;99.90
48454;DHT22;34261;55.678;12.464;2023-03-02T06:05:37;1.10;99.90
48454;DHT22;34261;55.678;12.464;2023-03-02T06:08:03;1.10;99.90
48454;DHT22;34261;55.678;12.464;2023-03-02T06:10:29;1.10;99.90
48454;DHT22;34261;55.678;12.464;2023-03-02T06:12:56;1.20;99.90
48454;DHT22;34261;55.678;12.464;2023-03-02T06:15:21;1.20;99.90
48454;DHT22;34261;55.678;12.464;2023-03-02T06:17:47;1.20;99.90
48454;DHT22;34261;55.678;12.464;2023-03-02T06:20:13;1.20;99.90
48454;DHT22;34261;55.678;12.464;2023-03-02T06:22:42;1.20;99.90
48454;DHT22;34261;55.678;12.464;2023-03-02T06:25:16;1.20;99.90
48454;DHT22;34261;55.678;12.464;2023-03-02T06:27:42;1.20;99.90
48454;DHT22;34261;55.678;12.464;2023-03-02T06:30:09;1.20;99.90
48454;DHT22;34261;55.678;12.464;2023-03-02T06:32:35;1.20;99.90
48454;DHT22;34261;55.678;12.464;2023-03-02T06:35:01;1.20;99.90
48454;DHT22;34261;55.678;12.464;2023-03-02T06:37:27;1.30;99.90
48454;DHT22;34261;55.678;12.464;2023-03-02T06:39:56;1.30;99.90
48454;DHT22;34261;55.678;12.464;2023-03-02T06:42:22;1.30;99.90
48454;DHT22;34261;55.678;12.464;2023-03-02T06:44:48;1.30;99.90
48454;DHT22;34261;55.678;12.464;2023-03-02T06:47:13;1.30;99.90
48454;DHT22;34261;55.678;12.464;2023-03-02T06:49:39;1.30;99.90
48454;DHT22;34261;55.678;12.464;2023-03-02T06:52:04;1.40;99.90
48454;DHT22;34261;55.678;12.464;2023-03-02T06:54:31;1.30;99.90
48454;DHT22;34261;55.678;12.464;2023-03-02T06:56:57;1.50;99.90
48454;DHT22;34261;55.678;12.464;2023-03-02T06:59:22;1.50;99.90
48454;DHT22;34261;55.678;12.464;2023-03-02T07:01:48;1.60;99.90
48454;DHT22;34261;55.678;12.464;2023-03-02T07:04:14;1.70;99.90
48454;DHT22;34261;55.678;12.464;2023-03-02T07:06:40;1.70;99.90
48454;DHT22;34261;55.678;12.464;2023-03-02T07:09:06;1.80;99.90
48454;DHT22;34261;55.678;12.464;2023-03-02T07:11:31;1.80;99.90
48454;DHT22;34261;55.678;12.464;2023-03-02T07:13:58;1.90;99.90
48454;DHT22;34261;55.678;12.464;2023-03-02T07:16:24;2.00;99.90
48454;DHT22;34261;55.678;12.464;2023-03-02T07:18:50;2.10;99.90
48454;DHT22;34261;55.678;12.464;2023-03-02T07:21:15;2.10;99.90
48454;DHT22;34261;55.678;12.464;2023-03-02T07:23:41;2.10;99.90
48454;DHT22;34261;55.678;12.464;2023-03-02T07:26:06;2.30;99.90
48454;DHT22;34261;55.678;12.464;2023-03-02T07:28:36;2.30;99.90
48454;DHT22;34261;55.678;12.464;2023-03-02T07:31:06;2.40;99.90
48454;DHT22;34261;55.678;12.464;2023-03-02T07:33:32;2.50;99.90
48454;DHT22;34261;55.678;12.464;2023-03-02T07:35:58;2.50;99.90
48454;DHT22;34261;55.678;12.464;2023-03-02T07:38:23;2.60;99.90
48454;DHT22;34261;55.678;12.464;2023-03-02T07:40:49;2.70;99.90
48454;DHT22;34261;55.678;12.464;2023-03-02T07:43:14;2.80;99.90
48454;DHT22;34261;55.678;12.464;2023-03-02T07:45:40;2.90;99.90
48454;DHT22;34261;55.678;12.464;2023-03-02T07:48:05;2.90;99.90
48454;DHT22;34261;55.678;12.464;2023-03-02T07:50:31;3.00;99.90
48454;DHT22;34261;55.678;12.464;2023-03-02T07:52:57;3.10;99.90
48454;DHT22;34261;55.678;12.464;2023-03-02T07:55:22;3.20;99.90
48454;DHT22;34261;55.678;12.464;2023-03-02T07:57:48;3.30;99.90
48454;DHT22;34261;55.678;12.464;2023-03-02T08:00:14;3.40;99.90
48454;DHT22;34261;55.678;12.464;2023-03-02T08:02:40;3.50;99.90
48454;DHT22;34261;55.678;12.464;2023-03-02T08:05:06;3.60;99.90
48454;DHT22;34261;55.678;12.464;2023-03-02T08:07:31;3.60;99.90
48454;DHT22;34261;55.678;12.464;2023-03-02T08:09:57;3.70;99.90
48454;DHT22;34261;55.678;12.464;2023-03-02T08:12:22;3.80;99.90
48454;DHT22;34261;55.678;12.464;2023-03-02T08:14:48;3.90;99.90
48454;DHT22;34261;55.678;12.464;2023-03-02T08:17:13;3.90;99.90
48454;DHT22;34261;55.678;12.464;2023-03-02T08:19:39;4.00;99.90
48454;DHT22;34261;55.678;12.464;2023-03-02T08:22:04;4.10;99.90
48454;DHT22;34261;55.678;12.464;2023-03-02T08:24:30;4.20;99.90
48454;DHT22;34261;55.678;12.464;2023-03-02T08:26:58;4.20;99.90
48454;DHT22;34261;55.678;12.464;2023-03-02T08:29:23;4.40;99.90
48454;DHT22;34261;55.678;12.464;2023-03-02T08:31:49;4.50;99.90
48454;DHT22;34261;55.678;12.464;2023-03-02T08:34:14;4.60;99.90
48454;DHT22;34261;55.678;12.464;2023-03-02T08:36:40;4.60;99.90
48454;DHT22;34261;55.678;12.464;2023-03-02T08:39:07;4.70;99.90
48454;DHT22;34261;55.678;12.464;2023-03-02T08:41:32;4.80;99.90
48454;DHT22;34261;55.678;12.464;2023-03-02T08:43:58;4.90;99.90
48454;DHT22;34261;55.678;12.464;2023-03-02T08:46:24;4.90;99.90
48454;DHT22;34261;55.678;12.464;2023-03-02T08:48:49;5.10;99.90
48454;DHT22;34261;55.678;12.464;2023-03-02T08:51:16;5.10;99.90
48454;DHT22;34261;55.678;12.464;2023-03-02T08:53:44;5.20;99.90
48454;DHT22;34261;55.678;12.464;2023-03-02T08:56:29;5.20;99.90
48454;DHT22;34261;55.678;12.464;2023-03-02T08:58:57;5.30;99.90
48454;DHT22;34261;55.678;12.464;2023-03-02T09:01:24;5.50;99.90
48454;DHT22;34261;55.678;12.464;2023-03-02T09:03:50;5.60;99.90
48454;DHT22;34261;55.678;12.464;2023-03-02T09:06:15;5.70;99.90
48454;DHT22;34261;55.678;12.464;2023-03-02T09:08:41;5.80;99.90
48454;DHT22;34261;55.678;12.464;2023-03-02T09:11:07;5.90;99.90
48454;DHT22;34261;55.678;12.464;2023-03-02T09:13:32;6.00;99.90
48454;DHT22;34261;55.678;12.464;2023-03-02T09:15:58;6.00;99.90
48454;DHT22;34261;55.678;12.464;2023-03-02T09:18:25;6.10;99.90
48454;DHT22;34261;55.678;12.464;2023-03-02T09:20:50;6.20;99.90
48454;DHT22;34261;55.678;12.464;2023-03-02T09:23:16;6.30;99.90
48454;DHT22;34261;55.678;12.464;2023-03-02T09:25:42;6.40;99.90
48454;DHT22;34261;55.678;12.464;2023-03-02T09:28:10;6.50;99.90
48454;DHT22;34261;55.678;12.464;2023-03-02T09:30:35;6.60;99.90
48454;DHT22;34261;55.678;12.464;2023-03-02T09:33:01;6.70;99.90
48454;DHT22;34261;55.678;12.464;2023-03-02T09:35:26;6.90;99.90
48454;DHT22;34261;55.678;12.464;2023-03-02T09:37:51;7.00;99.90
48454;DHT22;34261;55.678;12.464;2023-03-02T09:40:18;7.20;99.90
48454;DHT22;34261;55.678;12.464;2023-03-02T09:48:09;7.60;99.90
48454;DHT22;34261;55.678;12.464;2023-03-02T09:50:39;7.70;99.90
48454;DHT22;34261;55.678;12.464;2023-03-02T09:53:08;7.80;99.90
48454;DHT22;34261;55.678;12.464;2023-03-02T09:55:39;7.90;99.90
48454;DHT22;34261;55.678;12.464;2023-03-02T09:58:06;8.10;99.90
48454;DHT22;34261;55.678;12.464;2023-03-02T10:00:36;8.20;99.90
48454;DHT22;34261;55.678;12.464;2023-03-02T10:05:49;8.40;99.90
48454;DHT22;34261;55.678;12.464;2023-03-02T10:08:14;8.60;99.90
48454;DHT22;34261;55.678;12.464;2023-03-02T10:13:11;9.00;99.90
48454;DHT22;34261;55.678;12.464;2023-03-02T10:15:46;9.00;99.90
48454;DHT22;34261;55.678;12.464;2023-03-02T12:26:30;14.20;90.30
48454;DHT22;34261;55.678;12.464;2023-03-02T12:29:03;14.30;89.50
48454;DHT22;34261;55.678;12.464;2023-03-02T12:34:19;14.40;87.80
48454;DHT22;34261;55.678;12.464;2023-03-02T12:36:47;14.40;87.60
48454;DHT22;34261;55.678;12.464;2023-03-02T12:41:42;14.40;89.70
48454;DHT22;34261;55.678;12.464;2023-03-02T12:46:56;14.60;86.30
48454;DHT22;34261;55.678;12.464;2023-03-02T12:49:32;14.70;88.20
48454;DHT22;34261;55.678;12.464;2023-03-02T12:52:01;14.60;86.20
48454;DHT22;34261;55.678;12.464;2023-03-02T12:54:30;14.50;84.90
48454;DHT22;34261;55.678;12.464;2023-03-02T12:57:18;14.50;84.60
48454;DHT22;34261;55.678;12.464;2023-03-02T12:59:54;14.70;85.30
48454;DHT22;34261;55.678;12.464;2023-03-02T13:02:22;14.80;85.00
48454;DHT22;34261;55.678;12.464;2023-03-02T13:04:59;14.70;84.10
48454;DHT22;34261;55.678;12.464;2023-03-02T13:07:26;14.70;84.10
48454;DHT22;34261;55.678;12.464;2023-03-02T13:09:52;14.60;84.20
48454;DHT22;34261;55.678;12.464;2023-03-02T13:12:18;14.70;83.70
48454;DHT22;34261;55.678;12.464;2023-03-02T13:14:44;14.50;84.50
48454;DHT22;34261;55.678;12.464;2023-03-02T13:17:22;14.30;84.30
48454;DHT22;34261;55.678;12.464;2023-03-02T13:19:48;14.60;83.90
48454;DHT22;34261;55.678;12.464;2023-03-02T13:22:14;14.80;83.80
48454;DHT22;34261;55.678;12.464;2023-03-02T13:24:59;15.00;83.90
48454;DHT22;34261;55.678;12.464;2023-03-02T13:27:26;15.20;84.70
48454;DHT22;34261;55.678;12.464;2023-03-02T13:29:52;15.20;81.10
48454;DHT22;34261;55.678;12.464;2023-03-02T13:32:24;15.10;81.50
48454;DHT22;34261;55.678;12.464;2023-03-02T13:34:51;14.90;82.20
48454;DHT22;34261;55.678;12.464;2023-03-02T13:39:59;15.00;81.50
48454;DHT22;34261;55.678;12.464;2023-03-02T13:42:26;14.70;82.00
48454;DHT22;34261;55.678;12.464;2023-03-02T13:44:52;14.80;82.20
48454;DHT22;34261;55.678;12.464;2023-03-02T13:47:21;14.90;81.50
48454;DHT22;34261;55.678;12.464;2023-03-02T13:49:47;15.10;81.60
48454;DHT22;34261;55.678;12.464;2023-03-02T13:52:15;15.10;81.60
48454;DHT22;34261;55.678;12.464;2023-03-02T13:54:42;14.80;81.60
48454;DHT22;34261;55.678;12.464;2023-03-02T13:57:09;14.90;82.40
48454;DHT22;34261;55.678;12.464;2023-03-02T13:59:38;14.90;82.40
48454;DHT22;34261;55.678;12.464;2023-03-02T14:02:10;15.00;82.20
48454;DHT22;34261;55.678;12.464;2023-03-02T14:04:37;14.90;82.40
48454;DHT22;34261;55.678;12.464;2023-03-02T14:07:02;14.90;82.30
48454;DHT22;34261;55.678;12.464;2023-03-02T14:09:28;15.00;82.10
48454;DHT22;34261;55.678;12.464;2023-03-02T14:11:54;15.20;81.20
48454;DHT22;34261;55.678;12.464;2023-03-02T14:14:20;15.40;80.80
48454;DHT22;34261;55.678;12.464;2023-03-02T14:16:46;15.50;79.40
48454;DHT22;34261;55.678;12.464;2023-03-02T14:19:12;15.40;79.90
48454;DHT22;34261;55.678;12.464;2023-03-02T14:21:38;15.40;82.20
48454;DHT22;34261;55.678;12.464;2023-03-02T14:24:03;15.70;81.40
48454;DHT22;34261;55.678;12.464;2023-03-02T14:26:30;15.80;80.20
48454;DHT22;34261;55.678;12.464;2023-03-02T14:28:57;15.50;80.60
48454;DHT22;34261;55.678;12.464;2023-03-02T14:31:23;15.60;81.40
48454;DHT22;34261;55.678;12.464;2023-03-02T14:33:49;15.20;81.20
48454;DHT22;34261;55.678;12.464;2023-03-02T14:36:16;14.70;82.20
48454;DHT22;34261;55.678;12.464;2023-03-02T14:38:43;14.60;82.50
48454;DHT22;34261;55.678;12.464;2023-03-02T14:41:12;14.50;83.40
48454;DHT22;34261;55.678;12.464;2023-03-02T14:43:38;14.40;83.10
48454;DHT22;34261;55.678;12.464;2023-03-02T14:46:03;14.40;83.20
48454;DHT22;34261;55.678;12.464;2023-03-02T14:48:29;14.30;83.60
48454;DHT22;34261;55.678;12.464;2023-03-02T14:50:55;14.60;83.10
48454;DHT22;34261;55.678;12.464;2023-03-02T14:53:23;14.70;83.10
48454;DHT22;34261;55.678;12.464;2023-03-02T14:55:49;15.00;82.00
48454;DHT22;34261;55.678;12.464;2023-03-02T14:58:19;15.00;82.10
48454;DHT22;34261;55.678;12.464;2023-03-02T15:00:47;15.10;81.50
48454;DHT22;34261;55.678;12.464;2023-03-02T15:03:13;15.10;81.50
48454;DHT22;34261;55.678;12.464;2023-03-02T15:05:40;15.00;81.30
48454;DHT22;34261;55.678;12.464;2023-03-02T15:08:08;15.00;81.50
48454;DHT22;34261;55.678;12.464;2023-03-02T15:10:33;14.90;81.30
48454;DHT22;34261;55.678;12.464;2023-03-02T15:12:59;14.90;81.60
48454;DHT22;34261;55.678;12.464;2023-03-02T15:15:24;14.80;81.80
48454;DHT22;34261;55.678;12.464;2023-03-02T15:17:50;14.60;82.30
48454;DHT22;34261;55.678;12.464;2023-03-02T15:20:16;14.40;82.10
48454;DHT22;34261;55.678;12.464;2023-03-02T15:22:41;13.70;82.40
48454;DHT22;34261;55.678;12.464;2023-03-02T15:25:07;13.70;83.70
48454;DHT22;34261;55.678;12.464;2023-03-02T15:27:33;13.50;83.60
48454;DHT22;34261;55.678;12.464;2023-03-02T15:29:58;13.30;83.80
48454;DHT22;34261;55.678;12.464;2023-03-02T15:32:23;12.90;84.60
48454;DHT22;34261;55.678;12.464;2023-03-02T15:34:49;12.70;85.30
48454;DHT22;34261;55.678;12.464;2023-03-02T15:37:14;12.30;85.80
48454;DHT22;34261;55.678;12.464;2023-03-02T15:39:40;12.30;86.50
48454;DHT22;34261;55.678;12.464;2023-03-02T15:42:06;11.80;86.70
48454;DHT22;34261;55.678;12.464;2023-03-02T15:44:32;11.60;88.20
48454;DHT22;34261;55.678;12.464;2023-03-02T15:46:58;11.60;88.80
48454;DHT22;34261;55.678;12.464;2023-03-02T15:49:24;11.50;89.00
48454;DHT22;34261;55.678;12.464;2023-03-02T15:51:53;11.40;89.40
48454;DHT22;34261;55.678;12.464;2023-03-02T15:54:19;11.00;90.00
48454;DHT22;34261;55.678;12.464;2023-03-02T15:56:45;10.80;90.00
48454;DHT22;34261;55.678;12.464;2023-03-02T15:59:16;10.60;90.60
48454;DHT22;34261;55.678;12.464;2023-03-02T16:01:41;10.50;90.70
48454;DHT22;34261;55.678;12.464;2023-03-02T16:04:07;10.30;91.00
48454;DHT22;34261;55.678;12.464;2023-03-02T16:06:32;10.30;91.10
48454;DHT22;34261;55.678;12.464;2023-03-02T16:08:58;10.20;91.30
48454;DHT22;34261;55.678;12.464;2023-03-02T16:11:23;10.10;91.50
48454;DHT22;34261;55.678;12.464;2023-03-02T16:13:50;10.00;91.80
48454;DHT22;34261;55.678;12.464;2023-03-02T16:16:57;10.00;92.00
48454;DHT22;34261;55.678;12.464;2023-03-02T16:19:23;9.80;92.20
48454;DHT22;34261;55.678;12.464;2023-03-02T16:21:58;9.70;92.40
48454;DHT22;34261;55.678;12.464;2023-03-02T16:24:31;9.60;92.50
48454;DHT22;34261;55.678;12.464;2023-03-02T16:26:57;9.50;92.80
48454;DHT22;34261;55.678;12.464;2023-03-02T16:29:22;9.40;93.00
48454;DHT22;34261;55.678;12.464;2023-03-02T16:31:48;9.40;93.20
48454;DHT22;34261;55.678;12.464;2023-03-02T16:34:14;9.30;93.20
48454;DHT22;34261;55.678;12.464;2023-03-02T16:36:40;9.10;93.50
48454;DHT22;34261;55.678;12.464;2023-03-02T16:39:06;9.00;93.70
48454;DHT22;34261;55.678;12.464;2023-03-02T16:41:32;8.90;94.10
48454;DHT22;34261;55.678;12.464;2023-03-02T16:43:58;8.90;94.10
48454;DHT22;34261;55.678;12.464;2023-03-02T16:46:24;8.80;94.10
48454;DHT22;34261;55.678;12.464;2023-03-02T16:48:50;8.70;94.30
48454;DHT22;34261;55.678;12.464;2023-03-02T16:51:17;8.70;94.40
48454;DHT22;34261;55.678;12.464;2023-03-02T16:53:43;8.60;94.60
48454;DHT22;34261;55.678;12.464;2023-03-02T16:56:09;8.40;94.80
48454;DHT22;34261;55.678;12.464;2023-03-02T16:58:35;8.30;95.30
48454;DHT22;34261;55.678;12.464;2023-03-02T17:01:06;8.30;95.40
48454;DHT22;34261;55.678;12.464;2023-03-02T17:03:32;8.30;95.50
48454;DHT22;34261;55.678;12.464;2023-03-02T17:05:57;8.20;95.70
48454;DHT22;34261;55.678;12.464;2023-03-02T17:08:23;8.20;95.80
48454;DHT22;34261;55.678;12.464;2023-03-02T17:10:49;8.10;95.90
48454;DHT22;34261;55.678;12.464;2023-03-02T17:13:14;8.00;96.20
48454;DHT22;34261;55.678;12.464;2023-03-02T17:15:41;7.90;96.20
48454;DHT22;34261;55.678;12.464;2023-03-02T17:18:07;7.80;96.50
48454;DHT22;34261;55.678;12.464;2023-03-02T17:20:32;7.70;96.60
48454;DHT22;34261;55.678;12.464;2023-03-02T17:22:59;7.70;96.90
48454;DHT22;34261;55.678;12.464;2023-03-02T17:25:25;7.70;97.00
48454;DHT22;34261;55.678;12.464;2023-03-02T17:27:50;7.50;97.20
48454;DHT22;34261;55.678;12.464;2023-03-02T17:30:16;7.50;97.40
48454;DHT22;34261;55.678;12.464;2023-03-02T17:32:41;7.50;97.50
48454;DHT22;34261;55.678;12.464;2023-03-02T17:35:08;7.50;97.40
48454;DHT22;34261;55.678;12.464;2023-03-02T17:37:34;7.40;97.50
48454;DHT22;34261;55.678;12.464;2023-03-02T17:40:00;7.30;97.80
48454;DHT22;34261;55.678;12.464;2023-03-02T17:42:26;7.20;98.00
48454;DHT22;34261;55.678;12.464;2023-03-02T17:44:51;7.20;98.20
48454;DHT22;34261;55.678;12.464;2023-03-02T17:47:18;7.00;98.30
48454;DHT22;34261;55.678;12.464;2023-03-02T17:49:43;7.00;98.60
48454;DHT22;34261;55.678;12.464;2023-03-02T17:52:10;6.90;98.80
48454;DHT22;34261;55.678;12.464;2023-03-02T17:54:35;6.80;99.00
48454;DHT22;34261;55.678;12.464;2023-03-02T17:57:01;6.70;99.20
48454;DHT22;34261;55.678;12.464;2023-03-02T17:59:27;6.60;99.60
48454;DHT22;34261;55.678;12.464;2023-03-02T18:01:52;6.60;99.70
48454;DHT22;34261;55.678;12.464;2023-03-02T18:04:18;6.50;99.90